Time;durP1;ratioP1;P1;durP2;ratioP2;P2;SDS_P1;SDS_P2;PMS_P1;PMS_P2;Temp;Humidity;BMP_temperature;BMP_pressure;BME280_temperature;BME280_humidity;BME280_pressure;Samples;Min_cycle;Max_cycle;Signal;HPM_P1;HPM_P2
2022/04/03 00:01:46;;;;;;;9.97;1.70;;;2.80;99.90;;;;;;4148000;28;20215;-88
2022/04/03 00:03:47;;;;;;;8.37;1.80;;;2.80;99.90;;;;;;4148080;28;20172;-88
2022/04/03 00:05:48;;;;;;;5.60;1.80;;;2.60;99.90;;;;;;4147945;28;20177;-88
2022/04/03 00:07:49;;;;;;;5.67;1.80;;;2.60;99.90;;;;;;4164368;28;20200;-88
2022/04/03 00:09:49;;;;;;;5.77;1.60;;;2.60;99.90;;;;;;4148051;28;20323;-87
2022/04/03 00:11:50;;;;;;;7.20;2.00;;;2.80;99.90;;;;;;4148102;28;20184;-88
2022/04/03 00:13:52;;;;;;;3.10;1.50;;;3.10;99.90;;;;;;4147902;28;20180;-88
2022/04/03 00:15:53;;;;;;;2.90;1.60;;;3.10;99.90;;;;;;4147986;28;20183;-88
2022/04/03 00:17:53;;;;;;;6.37;1.90;;;3.30;99.90;;;;;;4148102;28;20629;-87
2022/04/03 00:19:54;;;;;;;7.23;2.20;;;3.30;99.90;;;;;;4164152;28;20195;-87
2022/04/03 00:21:55;;;;;;;6.57;1.63;;;3.30;99.90;;;;;;4147953;28;20212;-87
2022/04/03 00:23:55;;;;;;;6.67;1.90;;;3.20;99.90;;;;;;4149135;28;20172;-88
2022/04/03 00:25:56;;;;;;;4.97;1.87;;;3.20;99.90;;;;;;4150998;28;20725;-88
2022/04/03 00:27:57;;;;;;;6.80;1.53;;;3.10;99.90;;;;;;4151023;28;20680;-88
2022/04/03 00:29:58;;;;;;;4.73;1.40;;;3.10;99.90;;;;;;4151161;28;20176;-87
2022/04/03 00:32:00;;;;;;;6.37;1.83;;;3.00;99.90;;;;;;4151098;28;20227;-87
2022/04/03 00:34:01;;;;;;;5.83;1.77;;;2.90;99.90;;;;;;4150876;28;20176;-88
2022/04/03 00:36:02;;;;;;;5.27;2.00;;;2.70;99.90;;;;;;4150939;28;20235;-87
2022/04/03 00:38:03;;;;;;;10.80;1.57;;;2.60;99.90;;;;;;4150890;28;20288;-88
2022/04/03 00:40:04;;;;;;;2.90;1.50;;;2.60;99.90;;;;;;4167409;28;20176;-87
2022/04/03 00:42:09;;;;;;;6.97;1.87;;;2.40;99.90;;;;;;4150594;28;20212;-87
2022/04/03 00:44:11;;;;;;;9.53;1.80;;;2.20;99.90;;;;;;4150912;28;20209;-88
2022/04/03 00:46:16;;;;;;;3.67;1.73;;;2.10;99.90;;;;;;4166937;28;20560;-88
2022/04/03 00:48:17;;;;;;;3.13;1.63;;;1.90;99.90;;;;;;4150767;28;20205;-88
2022/04/03 00:50:18;;;;;;;4.53;2.20;;;1.90;99.90;;;;;;4184131;28;20174;-88
2022/04/03 00:52:20;;;;;;;6.57;1.70;;;1.90;99.90;;;;;;4150682;28;20208;-88
2022/04/03 00:54:20;;;;;;;5.40;1.90;;;1.70;99.90;;;;;;4150631;28;20511;-88
2022/04/03 00:56:22;;;;;;;3.90;1.50;;;1.40;99.90;;;;;;4150278;28;20298;-88
2022/04/03 00:58:23;;;;;;;2.63;1.50;;;1.40;99.90;;;;;;4150518;28;20161;-88
2022/04/03 01:00:24;;;;;;;2.10;1.60;;;1.30;99.90;;;;;;4150646;28;20219;-87
2022/04/03 01:02:24;;;;;;;4.20;1.60;;;1.30;99.90;;;;;;4150731;28;20221;-87
2022/04/03 01:04:25;;;;;;;3.93;1.90;;;1.50;99.90;;;;;;4150612;28;20531;-88
2022/04/03 01:06:26;;;;;;;2.73;1.33;;;1.90;99.90;;;;;;4150286;28;20235;-88
2022/04/03 01:08:28;;;;;;;6.23;2.07;;;2.20;99.90;;;;;;4150725;28;20181;-87
2022/04/03 01:10:29;;;;;;;9.20;1.57;;;2.10;99.90;;;;;;4150879;28;20228;-88
2022/04/03 01:12:29;;;;;;;4.13;1.70;;;1.80;99.90;;;;;;4150314;28;20181;-88
2022/04/03 01:14:35;;;;;;;5.10;2.20;;;1.60;99.90;;;;;;4166660;28;20169;-88
2022/04/03 01:16:36;;;;;;;4.90;1.70;;;1.40;99.90;;;;;;4150381;28;20197;-88
2022/04/03 01:18:38;;;;;;;4.10;1.70;;;1.40;99.90;;;;;;4150051;28;20169;-88
2022/04/03 01:20:39;;;;;;;6.73;2.00;;;1.40;99.90;;;;;;4225815;23;20289;-91
2022/04/03 01:22:40;;;;;;;7.13;2.00;;;1.50;99.90;;;;;;4133890;28;20245;-91
2022/04/03 01:24:44;;;;;;;5.30;2.37;;;1.30;99.90;;;;;;4117895;28;20181;-92
2022/04/03 01:26:45;;;;;;;5.83;2.43;;;1.30;99.90;;;;;;4124946;28;20597;-92
2022/04/03 01:28:46;;;;;;;8.20;2.20;;;1.30;99.90;;;;;;4134113;28;20205;-92
2022/04/03 01:30:47;;;;;;;7.73;2.60;;;1.40;99.90;;;;;;4133980;28;20192;-92
2022/04/03 01:32:48;;;;;;;10.00;2.43;;;1.30;99.90;;;;;;4134207;28;20254;-92
2022/04/03 01:34:49;;;;;;;4.20;2.23;;;1.20;99.90;;;;;;4133658;28;20173;-91
2022/04/03 01:36:49;;;;;;;8.47;2.97;;;1.30;99.90;;;;;;4133777;28;20198;-91
2022/04/03 01:38:50;;;;;;;5.03;2.57;;;1.20;99.90;;;;;;4150123;28;20165;-92
2022/04/03 01:40:51;;;;;;;8.47;2.53;;;1.20;99.90;;;;;;4133802;28;20173;-92
2022/04/03 01:42:52;;;;;;;6.60;2.57;;;1.20;99.90;;;;;;4133643;28;20169;-92
2022/04/03 01:44:53;;;;;;;6.33;2.70;;;1.20;99.90;;;;;;4134009;28;20177;-93
2022/04/03 01:46:53;;;;;;;8.83;2.70;;;1.30;99.90;;;;;;4149731;28;20227;-92
2022/04/03 01:48:54;;;;;;;9.63;2.83;;;1.20;99.90;;;;;;4133665;28;20174;-92
2022/04/03 01:50:55;;;;;;;6.40;2.70;;;1.20;99.90;;;;;;4149920;28;20169;-92
2022/04/03 01:52:56;;;;;;;8.30;3.13;;;1.10;99.90;;;;;;4133703;28;20193;-92
2022/04/03 01:54:56;;;;;;;5.90;2.77;;;1.10;99.90;;;;;;4133851;28;20646;-92
2022/04/03 01:56:57;;;;;;;7.97;2.90;;;1.10;99.90;;;;;;4149911;28;20192;-91
2022/04/03 01:58:58;;;;;;;6.33;2.60;;;1.20;99.90;;;;;;4149340;28;20650;-92
2022/04/03 02:00:59;;;;;;;7.00;2.83;;;1.20;99.90;;;;;;4133316;28;20173;-92
2022/04/03 02:03:00;;;;;;;5.83;2.70;;;1.20;99.90;;;;;;4133651;28;20177;-91
2022/04/03 02:05:01;;;;;;;8.17;3.00;;;1.20;99.90;;;;;;4133661;28;20224;-92
2022/04/03 02:07:03;;;;;;;7.97;3.10;;;1.20;99.90;;;;;;4133221;28;20264;-92
2022/04/03 02:09:04;;;;;;;7.83;3.10;;;1.20;99.90;;;;;;4133739;28;20195;-91
2022/04/03 02:11:05;;;;;;;8.70;3.10;;;1.10;99.90;;;;;;4133378;28;20261;-91
2022/04/03 02:13:06;;;;;;;7.77;2.70;;;1.20;99.90;;;;;;4133131;28;20178;-91
2022/04/03 02:15:11;;;;;;;9.47;3.20;;;1.20;99.90;;;;;;4133383;28;20657;-91
2022/04/03 02:17:12;;;;;;;8.00;2.83;;;1.20;99.90;;;;;;4133281;28;20240;-91
2022/04/03 02:19:12;;;;;;;6.73;2.60;;;1.20;99.90;;;;;;4133380;28;20654;-92
2022/04/03 02:21:13;;;;;;;5.43;2.70;;;1.20;99.90;;;;;;4133224;28;20232;-92
2022/04/03 02:23:14;;;;;;;7.23;2.93;;;1.10;99.90;;;;;;4149511;28;20209;-93
2022/04/03 02:25:15;;;;;;;6.47;2.87;;;1.00;99.90;;;;;;4133375;28;20197;-92
2022/04/03 02:27:16;;;;;;;7.73;2.77;;;0.90;99.90;;;;;;4132794;28;20682;-92
2022/04/03 02:29:17;;;;;;;7.70;2.90;;;0.90;99.90;;;;;;4133076;28;20181;-93
2022/04/03 02:31:18;;;;;;;7.43;2.57;;;0.90;99.90;;;;;;4149251;28;20724;-92
2022/04/03 02:33:19;;;;;;;8.50;2.60;;;0.90;99.90;;;;;;4133035;28;20218;-92
2022/04/03 02:35:20;;;;;;;8.70;2.60;;;0.90;99.90;;;;;;4132946;28;20617;-91
2022/04/03 02:37:21;;;;;;;5.40;2.63;;;0.90;99.90;;;;;;4148878;28;20205;-91
2022/04/03 02:39:21;;;;;;;13.80;2.93;;;0.90;99.90;;;;;;4133004;28;20252;-92
2022/04/03 02:41:22;;;;;;;9.80;2.77;;;0.90;99.90;;;;;;4132720;28;20241;-92
2022/04/03 02:43:23;;;;;;;10.20;3.13;;;0.90;99.90;;;;;;4132604;28;20253;-91
2022/04/03 02:45:24;;;;;;;6.63;3.27;;;0.90;99.90;;;;;;4132670;28;20539;-92
2022/04/03 02:47:25;;;;;;;10.33;2.90;;;0.80;99.90;;;;;;4148257;28;20196;-92
2022/04/03 02:49:26;;;;;;;7.43;2.97;;;0.80;99.90;;;;;;4133009;28;20186;-92
2022/04/03 02:51:27;;;;;;;5.87;2.90;;;0.90;99.90;;;;;;4149100;28;20626;-92
2022/04/03 02:53:28;;;;;;;9.23;3.50;;;0.80;99.90;;;;;;4149049;28;20181;-92
2022/04/03 02:55:29;;;;;;;9.83;3.30;;;0.80;99.90;;;;;;4149240;28;20173;-92
2022/04/03 02:57:30;;;;;;;6.50;2.83;;;0.80;99.90;;;;;;4132609;28;20201;-96
2022/04/03 02:59:31;;;;;;;6.27;2.80;;;0.80;99.90;;;;;;4132474;28;20170;-91
2022/04/03 03:01:32;;;;;;;6.83;2.80;;;0.80;99.90;;;;;;4133101;28;20212;-92
2022/04/03 03:03:33;;;;;;;7.80;2.50;;;0.80;99.90;;;;;;4132385;28;20586;-92
2022/04/03 03:05:34;;;;;;;5.17;2.80;;;0.70;99.90;;;;;;4132531;28;20260;-92
2022/04/03 03:07:37;;;;;;;8.57;2.73;;;0.80;99.90;;;;;;4148732;28;20192;-92
2022/04/03 03:09:41;;;;;;;5.97;2.63;;;0.80;99.90;;;;;;4148873;28;20173;-93
2022/04/03 03:11:42;;;;;;;8.77;2.80;;;0.80;99.90;;;;;;4132077;28;20204;-92
2022/04/03 03:13:43;;;;;;;6.97;2.67;;;0.80;99.90;;;;;;4132037;28;20192;-92
2022/04/03 03:15:44;;;;;;;4.17;2.50;;;0.90;99.90;;;;;;4132112;28;20177;-93
2022/04/03 03:17:46;;;;;;;8.43;2.70;;;0.80;99.90;;;;;;4132422;28;20208;-92
2022/04/03 03:19:46;;;;;;;6.47;2.97;;;0.80;99.90;;;;;;4132656;28;20256;-92
2022/04/03 03:21:48;;;;;;;7.03;3.40;;;0.80;99.90;;;;;;4148480;28;20211;-92
2022/04/03 03:23:49;;;;;;;6.63;2.67;;;0.80;99.90;;;;;;4132429;28;20170;-92
2022/04/03 03:25:50;;;;;;;6.83;3.00;;;0.90;99.90;;;;;;4132413;28;20184;-92
2022/04/03 03:27:50;;;;;;;7.13;2.87;;;0.90;99.90;;;;;;4132734;28;20272;-93
2022/04/03 03:29:54;;;;;;;4.70;2.70;;;1.10;99.90;;;;;;4132433;28;20189;-94
2022/04/03 03:31:54;;;;;;;8.07;3.30;;;1.20;99.90;;;;;;4149840;28;20169;-92
2022/04/03 03:33:55;;;;;;;6.63;2.97;;;1.30;99.90;;;;;;4132181;28;20184;-91
2022/04/03 03:35:56;;;;;;;7.83;3.13;;;1.30;99.90;;;;;;4133498;28;20165;-92
2022/04/03 03:37:57;;;;;;;7.20;3.00;;;1.20;99.90;;;;;;4132170;28;20213;-92
2022/04/03 03:39:58;;;;;;;7.03;3.00;;;1.20;99.90;;;;;;4132511;28;20180;-92
2022/04/03 03:41:59;;;;;;;7.83;3.27;;;1.10;99.90;;;;;;4131850;28;20209;-92
2022/04/03 03:44:08;;;;;;;10.67;3.50;;;1.10;99.90;;;;;;4148120;28;20191;-92
2022/04/03 03:46:10;;;;;;;10.47;3.63;;;1.00;99.90;;;;;;4149555;28;20187;-92
2022/04/03 03:48:11;;;;;;;9.97;2.77;;;0.90;99.90;;;;;;4148413;28;20220;-93
2022/04/03 03:50:14;;;;;;;7.50;3.30;;;0.90;99.90;;;;;;4132363;28;20181;-92
2022/04/03 03:52:15;;;;;;;9.13;3.17;;;0.90;99.90;;;;;;4131951;28;20168;-92
2022/04/03 03:54:16;;;;;;;5.10;3.00;;;0.90;99.90;;;;;;4131690;28;20181;-93
2022/04/03 03:56:17;;;;;;;8.77;2.90;;;0.90;99.90;;;;;;4132260;28;20194;-91
2022/04/03 03:58:18;;;;;;;5.70;2.63;;;0.90;99.90;;;;;;4133857;28;20294;-92
2022/04/03 04:00:19;;;;;;;6.97;2.50;;;0.90;99.90;;;;;;4135286;28;20174;-92
2022/04/03 04:02:20;;;;;;;7.20;2.50;;;0.60;99.90;;;;;;4136229;28;20216;-92
2022/04/03 04:04:23;;;;;;;8.23;2.53;;;0.50;99.90;;;;;;4135482;28;20209;-91
2022/04/03 04:06:23;;;;;;;8.63;2.63;;;0.50;99.90;;;;;;4135530;28;20208;-91
2022/04/03 04:08:24;;;;;;;8.13;2.40;;;0.60;99.90;;;;;;4135425;28;20177;-92
2022/04/03 04:10:25;;;;;;;4.90;2.53;;;0.60;99.90;;;;;;4135557;28;20185;-93
2022/04/03 04:12:26;;;;;;;4.97;2.17;;;0.60;99.90;;;;;;4135011;28;20181;-92
2022/04/03 04:14:27;;;;;;;3.03;1.60;;;0.50;99.90;;;;;;4135339;28;20170;-94
2022/04/03 04:16:27;;;;;;;5.67;2.13;;;0.60;99.90;;;;;;4134917;28;20186;-91
2022/04/03 04:18:29;;;;;;;4.87;2.10;;;0.50;99.90;;;;;;4135261;28;20185;-93
2022/04/03 04:20:30;;;;;;;8.33;2.50;;;0.40;99.90;;;;;;4134926;28;20166;-93
2022/04/03 04:22:31;;;;;;;5.33;2.20;;;0.50;99.90;;;;;;4134832;28;20288;-92
2022/04/03 04:24:32;;;;;;;5.53;2.10;;;0.70;99.90;;;;;;4152317;28;20165;-93
2022/04/03 04:26:33;;;;;;;7.80;2.00;;;0.70;99.90;;;;;;4134872;28;20205;-91
2022/04/03 04:28:34;;;;;;;4.60;1.90;;;0.70;99.90;;;;;;4135638;28;20231;-92
2022/04/03 04:30:37;;;;;;;8.07;1.90;;;0.50;99.90;;;;;;4150902;28;20173;-92
2022/04/03 04:32:40;;;;;;;8.20;2.20;;;0.70;99.90;;;;;;4134708;28;20320;-92
2022/04/03 04:34:41;;;;;;;8.70;1.97;;;0.70;99.90;;;;;;4151722;28;20169;-94
2022/04/03 04:36:45;;;;;;;6.43;2.03;;;0.80;99.90;;;;;;4151058;28;20244;-92
2022/04/03 04:38:47;;;;;;;4.40;2.20;;;0.90;99.90;;;;;;4135140;28;20185;-93
2022/04/03 04:40:48;;;;;;;5.03;2.30;;;0.90;99.90;;;;;;4134974;28;20208;-92
2022/04/03 04:42:49;;;;;;;5.33;2.10;;;0.90;99.90;;;;;;4134743;28;20272;-91
2022/04/03 04:44:50;;;;;;;3.47;1.90;;;1.00;99.90;;;;;;4136784;28;20585;-92
2022/04/03 04:46:51;;;;;;;4.87;2.50;;;1.00;99.90;;;;;;4134995;28;20198;-91
2022/04/03 04:48:52;;;;;;;7.17;2.80;;;1.10;99.90;;;;;;4134754;28;20170;-92
2022/04/03 04:50:55;;;;;;;8.30;3.23;;;1.10;99.90;;;;;;4134731;28;20178;-92
2022/04/03 04:52:57;;;;;;;8.27;3.10;;;1.20;99.90;;;;;;4134488;28;20177;-92
2022/04/03 04:54:58;;;;;;;6.43;2.80;;;1.10;99.90;;;;;;4134402;28;20233;-92
2022/04/03 04:56:59;;;;;;;5.10;3.03;;;1.00;99.90;;;;;;4134507;28;20674;-92
2022/04/03 04:59:00;;;;;;;7.67;3.27;;;0.90;99.90;;;;;;4150317;28;20182;-93
2022/04/03 05:01:05;;;;;;;9.30;3.17;;;0.90;99.90;;;;;;4150503;28;20191;-94
2022/04/03 05:03:06;;;;;;;6.50;2.90;;;0.80;99.90;;;;;;4134372;28;20184;-93
2022/04/03 05:05:08;;;;;;;8.13;3.30;;;0.80;99.90;;;;;;4150912;28;20208;-92
2022/04/03 05:07:10;;;;;;;9.83;3.17;;;0.80;99.90;;;;;;4150973;28;20208;-92
2022/04/03 05:09:11;;;;;;;8.93;3.23;;;0.80;99.90;;;;;;4149845;28;20169;-92
2022/04/03 05:11:13;;;;;;;10.50;3.17;;;0.70;99.90;;;;;;4134123;28;20186;-93
2022/04/03 05:13:14;;;;;;;8.60;3.70;;;0.80;99.90;;;;;;4134280;28;20170;-92
2022/04/03 05:15:15;;;;;;;7.43;3.40;;;0.80;99.90;;;;;;4134487;28;20232;-92
2022/04/03 05:17:16;;;;;;;7.83;3.50;;;0.70;99.90;;;;;;4134147;28;20284;-92
2022/04/03 05:19:17;;;;;;;8.30;3.47;;;0.70;99.90;;;;;;4138229;28;20216;-93
2022/04/03 05:21:18;;;;;;;5.57;3.07;;;0.60;99.90;;;;;;4150206;28;20189;-93
2022/04/03 05:23:22;;;;;;;6.87;3.70;;;0.60;99.90;;;;;;4135968;28;20609;-92
2022/04/03 05:25:23;;;;;;;7.67;3.30;;;0.60;99.90;;;;;;4149999;28;20173;-92
2022/04/03 05:27:25;;;;;;;5.63;2.93;;;0.60;99.90;;;;;;4135749;28;20193;-94
2022/04/03 05:29:26;;;;;;;9.30;3.30;;;0.60;99.90;;;;;;4134137;28;20174;-91
2022/04/03 05:31:27;;;;;;;8.70;3.00;;;0.70;99.90;;;;;;4134152;28;20232;-91
2022/04/03 05:33:28;;;;;;;10.20;3.50;;;0.70;99.90;;;;;;4134205;28;20180;-92
2022/04/03 05:35:29;;;;;;;7.53;2.97;;;0.70;99.90;;;;;;4150623;28;20192;-92
2022/04/03 05:37:30;;;;;;;7.37;3.10;;;0.80;99.90;;;;;;4133815;28;20304;-92
2022/04/03 05:39:31;;;;;;;7.07;2.93;;;0.80;99.90;;;;;;4150422;28;20169;-93
2022/04/03 05:41:34;;;;;;;7.03;3.43;;;0.90;99.90;;;;;;4135291;28;20666;-92
2022/04/03 05:43:35;;;;;;;7.13;3.17;;;0.90;99.90;;;;;;4150619;28;20177;-92
2022/04/03 05:45:46;;;;;;;10.03;4.13;;;0.90;99.90;;;;;;4150328;28;20165;-91
2022/04/03 05:47:47;;;;;;;6.57;3.60;;;1.00;99.90;;;;;;4150155;28;20226;-92
2022/04/03 05:49:51;;;;;;;6.70;3.10;;;1.00;99.90;;;;;;4134204;28;20174;-92
2022/04/03 05:51:53;;;;;;;7.07;3.33;;;1.00;99.90;;;;;;4134386;28;20201;-93
2022/04/03 05:53:54;;;;;;;11.03;3.43;;;1.00;99.90;;;;;;4150240;28;20172;-91
2022/04/03 05:55:54;;;;;;;10.17;3.73;;;1.00;99.90;;;;;;4134094;28;20170;-92
2022/04/03 05:57:56;;;;;;;7.63;3.93;;;1.00;99.90;;;;;;4150191;28;20195;-92
2022/04/03 05:59:57;;;;;;;8.03;3.50;;;1.00;99.90;;;;;;4150459;28;20177;-92
2022/04/03 06:01:58;;;;;;;7.83;3.23;;;1.00;99.90;;;;;;4151307;28;20230;-92
2022/04/03 06:03:59;;;;;;;9.73;3.53;;;1.00;99.90;;;;;;4150942;28;20180;-91
2022/04/03 06:06:00;;;;;;;7.53;3.63;;;1.10;99.90;;;;;;4149897;28;20165;-93
2022/04/03 06:08:04;;;;;;;8.83;3.70;;;1.20;99.90;;;;;;4138490;28;20191;-93
2022/04/03 06:10:16;;;;;;;7.90;3.63;;;1.30;99.90;;;;;;4163102;28;20174;-92
2022/04/03 06:12:24;;;;;;;9.47;3.50;;;1.30;99.90;;;;;;4165434;28;20184;-92
2022/04/03 06:14:26;;;;;;;10.07;3.63;;;1.30;99.90;;;;;;4150564;28;20204;-92
2022/04/03 06:16:27;;;;;;;7.07;3.10;;;1.50;99.90;;;;;;4151062;28;20200;-92
2022/04/03 06:18:30;;;;;;;9.03;2.90;;;1.60;99.90;;;;;;4134729;28;20720;-92
2022/04/03 06:20:31;;;;;;;6.57;2.90;;;1.70;99.90;;;;;;4133217;28;20244;-92
2022/04/03 06:22:35;;;;;;;4.30;2.60;;;1.90;99.90;;;;;;4135895;28;20253;-93
2022/04/03 06:24:36;;;;;;;10.70;3.03;;;2.00;99.90;;;;;;4133809;28;20178;-93
2022/04/03 06:26:44;;;;;;;8.43;3.00;;;2.20;99.90;;;;;;4134488;28;20220;-92
2022/04/03 06:28:47;;;;;;;6.37;3.37;;;2.30;99.90;;;;;;4134294;28;20184;-94
2022/04/03 06:30:51;;;;;;;8.53;3.67;;;2.40;99.90;;;;;;4133816;28;20627;-93
2022/04/03 06:32:55;;;;;;;8.27;4.30;;;2.50;99.90;;;;;;4151365;28;20676;-92
2022/04/03 06:35:11;;;;;;;11.70;4.77;;;2.60;99.90;;;;;;4151315;28;20169;-92
2022/04/03 06:37:11;;;;;;;8.93;4.30;;;2.50;99.90;;;;;;4150365;28;20201;-92
2022/04/03 06:39:12;;;;;;;7.90;4.23;;;2.50;99.90;;;;;;4134119;28;20174;-93
2022/04/03 06:41:13;;;;;;;8.40;3.63;;;2.60;99.90;;;;;;4134316;28;20209;-93
2022/04/03 06:43:20;;;;;;;13.17;4.40;;;2.70;99.90;;;;;;4150287;28;20201;-92
2022/04/03 06:45:24;;;;;;;10.67;5.63;;;2.80;99.90;;;;;;4150193;28;20180;-92
2022/04/03 06:47:25;;;;;;;21.30;5.67;;;2.80;99.90;;;;;;4132908;28;20279;-94
2022/04/03 06:49:28;;;;;;;12.83;5.00;;;2.80;99.90;;;;;;4133203;28;20189;-92
2022/04/03 06:51:29;;;;;;;8.17;4.20;;;2.80;99.90;;;;;;4133546;28;20185;-92
2022/04/03 06:53:30;;;;;;;5.67;2.73;;;2.80;99.90;;;;;;4133004;28;20185;-92
2022/04/03 06:55:31;;;;;;;5.77;2.27;;;2.70;99.90;;;;;;4135713;28;20248;-92
2022/04/03 06:58:23;;;;;;;12.97;2.63;;;2.70;99.90;;;;;;4141347;28;20204;-93
2022/04/03 07:01:02;;;;;;;;;;;;;;;;;;;;;
2022/04/03 07:03:24;;;;;;;;;;;;;;;;;;;;;
2022/04/03 07:05:42;;;;;;;5.07;2.83;;;2.70;99.90;;;;;;4163234;28;20261;-92
2022/04/03 07:07:51;;;;;;;5.93;2.93;;;2.90;99.90;;;;;;4143782;28;20260;-92
2022/04/03 07:10:02;;;;;;;6.27;2.40;;;2.90;99.90;;;;;;4147078;28;20149;-93
2022/04/03 07:12:08;;;;;;;6.33;2.73;;;2.80;99.90;;;;;;4162810;28;20169;-92
2022/04/03 07:14:11;;;;;;;4.53;2.23;;;2.90;99.90;;;;;;4146033;28;20165;-91
2022/04/03 07:16:18;;;;;;;8.27;2.53;;;3.50;99.90;;;;;;4145031;28;20180;-92
2022/04/03 07:18:22;;;;;;;4.90;2.63;;;4.40;99.90;;;;;;4145419;28;20272;-93
2022/04/03 07:20:33;;;;;;;7.83;2.10;;;5.90;99.90;;;;;;4141753;28;20212;-93
2022/04/03 07:22:55;;;;;;;14.93;2.57;;;7.50;99.90;;;;;;4154886;28;20216;-92
2022/04/03 07:25:01;;;;;;;8.27;2.50;;;9.10;99.90;;;;;;4137715;28;20192;-94
2022/04/03 07:27:08;;;;;;;4.83;2.30;;;10.60;99.90;;;;;;4136203;28;20181;-93
2022/04/03 07:29:14;;;;;;;7.73;2.10;;;10.50;99.90;;;;;;4135808;28;20269;-93
2022/04/03 07:31:35;;;;;;;6.45;2.47;;;10.90;99.90;;;;;;4154206;28;20200;-93
2022/04/03 07:34:01;;;;;;;10.07;2.80;;;10.10;99.90;;;;;;4152642;28;20617;-95
2022/04/03 07:36:22;;;;;;;5.65;2.50;;;10.80;99.90;;;;;;4139424;28;20209;-94
2022/04/03 07:38:28;;;;;;;6.53;2.13;;;11.60;99.90;;;;;;4139166;28;20182;-93
2022/04/03 07:40:35;;;;;;;5.70;2.53;;;12.40;99.90;;;;;;4155827;28;20168;-94
2022/04/03 07:42:50;;;;;;;5.90;2.10;;;13.60;99.90;;;;;;4156413;28;20234;-94
2022/04/03 07:44:53;;;;;;;8.95;2.40;;;13.50;99.90;;;;;;4138986;28;20173;-93
2022/04/03 07:47:15;;;;;;;8.80;2.28;;;14.10;99.90;;;;;;4139726;28;20712;-94
2022/04/03 07:49:37;;;;;;;;;;;;;;;;;;;;;
2022/04/03 07:51:49;;;;;;;11.00;1.77;;;13.50;99.90;;;;;;4138416;28;20227;-94
2022/04/03 07:53:58;;;;;;;4.18;1.10;;;11.80;99.90;;;;;;4137469;28;20268;-94
2022/04/03 07:56:05;;;;;;;6.40;1.50;;;10.10;99.90;;;;;;4155324;28;20331;-94
2022/04/03 07:58:35;;;;;;;;;;;;;;;;;;;;;
2022/04/03 08:01:45;;;;;;;6.10;2.13;;;13.20;99.90;;;;;;4157680;28;20191;-94
2022/04/03 08:05:06;;;;;;;;;;;;;;;;;;;;;
2022/04/03 08:11:41;;;;;;;5.63;1.58;;;15.30;99.90;;;;;;4114671;28;20178;-95
2022/04/03 08:14:05;;;;;;;6.88;1.77;;;15.70;99.90;;;;;;4124839;28;20186;-95
2022/04/03 08:16:49;;;;;;;;;;;;;;;;;;;;;
2022/04/03 08:20:00;;;;;;;5.15;1.35;;;13.40;99.90;;;;;;4156181;28;20184;-94
2022/04/03 08:22:37;;;;;;;4.50;1.42;;;13.30;99.90;;;;;;4158229;28;20188;-94
2022/04/03 08:31:33;;;;;;;;;;;;;;;;;;;;;
2022/04/03 08:34:17;;;;;;;10.35;2.25;;;11.90;99.90;;;;;;4148052;28;20205;-94
2022/04/03 08:37:27;;;;;;;;;;;;;;;;;;;;;
2022/04/03 08:40:47;;;;;;;;;;;;;;;;;;;;;
2022/04/03 10:41:37;;;;;;;;;;;;;;;;;;;;;
2022/04/03 13:23:47;;;;;;;5.87;0.80;;;9.70;99.90;;;;;;942960;23;21786;31
2022/04/03 13:32:44;;;;;;;1.90;0.63;;;10.20;99.90;;;;;;4058613;29;20551;-94
2022/04/03 13:34:30;;;;;;;3.90;1.00;;;10.20;99.90;;;;;;4033685;29;20186;-94
2022/04/03 13:36:41;;;;;;;3.63;1.00;;;10.20;99.90;;;;;;4028142;29;20676;-93
2022/04/03 13:38:42;;;;;;;3.07;0.90;;;9.90;99.90;;;;;;4040540;29;20185;-93
2022/04/03 13:40:51;;;;;;;3.13;1.00;;;9.50;99.90;;;;;;4041268;29;20200;-93
2022/04/03 13:42:52;;;;;;;3.70;0.90;;;9.20;99.90;;;;;;4041479;29;20304;-93
2022/04/03 14:50:51;;;;;;;;;;;;;;;;;;;;;
